createdAt,value
2022-09-02T00:01:41.520Z,0.68
2022-09-02T00:04:23.142Z,0.43
2022-09-02T00:06:52.255Z,0.60
2022-09-02T00:09:22.251Z,0.60
2022-09-02T00:11:51.247Z,0.70
2022-09-02T00:14:28.599Z,0.60
2022-09-02T00:16:56.095Z,0.50
2022-09-02T00:19:25.795Z,0.50
2022-09-02T00:21:55.118Z,0.60
2022-09-02T00:24:23.669Z,0.85
2022-09-02T00:26:51.295Z,0.40
2022-09-02T00:29:23.497Z,0.43
2022-09-02T00:31:50.447Z,0.60
2022-09-02T00:34:17.551Z,0.47
2022-09-02T00:36:44.676Z,0.95
2022-09-02T00:39:12.451Z,0.40
2022-09-02T00:41:41.772Z,0.60
2022-09-02T00:44:13.916Z,0.50
2022-09-02T00:46:41.356Z,0.50
2022-09-02T00:49:43.700Z,0.60
2022-09-02T00:52:30.865Z,0.40
2022-09-02T00:55:10.412Z,0.60
2022-09-02T00:57:45.027Z,0.60
2022-09-02T01:00:18.435Z,0.65
2022-09-02T01:02:55.817Z,0.57
2022-09-02T01:05:25.836Z,0.50
2022-09-02T01:07:55.192Z,2.25
2022-09-02T01:10:27.952Z,0.55
2022-09-02T01:13:07.091Z,0.40
2022-09-02T01:15:46.391Z,0.68
2022-09-02T01:18:24.205Z,0.57
2022-09-02T01:20:52.652Z,0.75
2022-09-02T01:23:19.807Z,0.70
2022-09-02T01:25:48.428Z,0.40
2022-09-02T01:28:18.427Z,0.50
2022-09-02T01:30:50.904Z,0.60
2022-09-02T01:33:19.973Z,0.60
2022-09-02T01:35:50.587Z,0.30
2022-09-02T01:38:18.728Z,0.40
2022-09-02T01:40:46.529Z,0.50
2022-09-02T01:43:20.468Z,0.57
2022-09-02T01:45:52.694Z,0.52
2022-09-02T01:48:21.293Z,0.68
2022-09-02T01:51:00.649Z,0.50
2022-09-02T01:53:30.534Z,0.40
2022-09-02T01:55:58.661Z,0.40
2022-09-02T01:58:25.753Z,0.70
2022-09-02T02:00:52.985Z,0.47
2022-09-02T02:03:20.255Z,0.40
2022-09-02T02:05:47.329Z,0.60
2022-09-02T02:08:17.305Z,0.63
2022-09-02T02:10:46.096Z,0.35
2022-09-02T02:13:14.481Z,0.63
2022-09-02T02:15:44.171Z,0.75
2022-09-02T02:18:12.153Z,0.47
2022-09-02T02:20:39.188Z,0.40
2022-09-02T02:23:07.672Z,0.60
2022-09-02T02:25:34.947Z,1.17
2022-09-02T02:28:03.828Z,0.50
2022-09-02T02:30:33.446Z,0.55
2022-09-02T02:33:01.909Z,0.50
2022-09-02T02:35:29.128Z,0.60
2022-09-02T02:37:56.249Z,0.50
2022-09-02T02:40:28.114Z,0.50
2022-09-02T02:42:55.158Z,0.50
2022-09-02T02:45:25.148Z,0.43
2022-09-02T02:47:53.470Z,0.50
2022-09-02T02:50:23.806Z,0.50
2022-09-02T02:52:53.841Z,0.50
2022-09-02T02:55:23.854Z,1.08
2022-09-02T02:57:51.856Z,0.85
2022-09-02T03:00:28.140Z,0.40
2022-09-02T03:03:02.318Z,0.45
2022-09-02T03:05:31.018Z,0.43
2022-09-02T03:07:58.643Z,0.40
2022-09-02T03:10:27.038Z,0.75
2022-09-02T03:12:54.240Z,0.40
2022-09-02T03:15:21.722Z,0.50
2022-09-02T03:17:52.292Z,0.50
2022-09-02T03:20:21.142Z,0.52
2022-09-02T03:22:57.371Z,0.60
2022-09-02T03:25:28.904Z,0.32
2022-09-02T03:27:58.741Z,0.40
2022-09-02T03:30:28.751Z,0.60
2022-09-02T03:33:03.896Z,0.60
2022-09-02T03:35:34.583Z,0.50
2022-09-02T03:38:01.755Z,0.77
2022-09-02T03:40:29.888Z,0.68
2022-09-02T03:43:00.138Z,1.25
2022-09-02T03:45:28.278Z,0.45
2022-09-02T03:47:55.904Z,0.50
2022-09-02T03:50:31.375Z,0.47
2022-09-02T03:53:00.477Z,0.70
2022-09-02T03:55:28.970Z,0.30
2022-09-02T03:57:56.349Z,0.68
2022-09-02T04:00:29.840Z,0.40
2022-09-02T04:02:58.540Z,0.47
2022-09-02T04:05:25.539Z,0.70
2022-09-02T04:07:56.551Z,0.90
2022-09-02T04:10:24.815Z,0.50
2022-09-02T04:12:53.624Z,0.50
2022-09-02T04:15:21.252Z,0.32
2022-09-02T04:17:50.621Z,0.43
2022-09-02T04:20:20.363Z,0.57
2022-09-02T04:22:47.386Z,0.40
2022-09-02T04:25:15.537Z,0.40
2022-09-02T04:27:43.577Z,0.52
2022-09-02T04:30:11.747Z,0.77
2022-09-02T04:32:41.055Z,0.60
2022-09-02T04:35:09.502Z,0.50
2022-09-02T04:37:38.867Z,1.40
2022-09-02T04:40:06.564Z,1.30
2022-09-02T04:42:34.168Z,0.50
2022-09-02T04:45:01.395Z,0.40
2022-09-02T04:47:29.185Z,0.70
2022-09-02T04:49:58.439Z,0.75
2022-09-02T04:52:26.286Z,0.57
2022-09-02T04:54:53.803Z,0.70
2022-09-02T04:57:20.769Z,0.63
2022-09-02T04:59:47.762Z,1.10
2022-09-02T05:02:15.208Z,0.63
2022-09-02T05:04:43.033Z,0.50
2022-09-02T05:07:18.288Z,0.70
2022-09-02T05:09:47.676Z,0.65
2022-09-02T05:12:18.273Z,0.70
2022-09-02T05:14:53.386Z,1.13
2022-09-02T05:17:23.375Z,0.90
2022-09-02T05:19:50.852Z,0.60
2022-09-02T05:22:19.676Z,0.90
2022-09-02T05:24:47.243Z,0.68
2022-09-02T05:27:16.261Z,1.10
2022-09-02T05:29:45.629Z,0.70
2022-09-02T05:32:13.755Z,0.68
2022-09-02T05:34:41.166Z,1.42
2022-09-02T05:37:08.411Z,0.63
2022-09-02T05:39:37.701Z,0.80
2022-09-02T05:42:06.649Z,0.77
2022-09-02T05:44:34.450Z,0.52
2022-09-02T05:47:03.511Z,0.70
2022-09-02T05:49:30.560Z,0.50
2022-09-02T05:52:04.603Z,0.93
2022-09-02T05:54:40.097Z,0.70
2022-09-02T05:57:16.607Z,0.63
2022-09-02T05:59:56.789Z,0.75
2022-09-02T06:02:29.265Z,0.85
2022-09-02T06:04:56.870Z,0.88
2022-09-02T06:07:26.562Z,0.75
2022-09-02T06:09:56.668Z,0.50
2022-09-02T06:12:26.152Z,0.98
2022-09-02T06:14:53.212Z,0.50
2022-09-02T06:17:22.021Z,0.50
2022-09-02T06:19:52.836Z,0.70
2022-09-02T06:22:23.011Z,1.10
2022-09-02T06:24:50.574Z,1.17
2022-09-02T06:27:21.743Z,2.35
2022-09-02T06:29:52.459Z,2.72
2022-09-02T06:32:22.116Z,1.23
2022-09-02T06:34:53.220Z,1.20
2022-09-02T06:37:21.500Z,0.60
2022-09-02T06:39:49.223Z,0.65
2022-09-02T06:42:22.180Z,0.55
2022-09-02T06:45:24.382Z,0.57
2022-09-02T06:47:53.724Z,0.57
2022-09-02T06:50:21.055Z,0.60
2022-09-02T06:52:48.055Z,0.65
2022-09-02T06:55:18.160Z,0.57
2022-09-02T06:57:45.144Z,0.65
2022-09-02T07:00:14.527Z,0.70
2022-09-02T07:02:43.651Z,0.70
2022-09-02T07:05:11.335Z,0.45
2022-09-02T07:07:41.987Z,0.60
2022-09-02T07:10:14.900Z,0.73
2022-09-02T07:12:45.909Z,0.63
2022-09-02T07:15:16.468Z,1.17
2022-09-02T07:17:44.680Z,0.68
2022-09-02T07:20:17.662Z,0.70
2022-09-02T07:25:20.159Z,0.60
2022-09-02T07:27:51.779Z,0.95
2022-09-02T07:30:19.415Z,0.95
2022-09-02T07:32:49.680Z,0.43
2022-09-02T07:35:20.162Z,0.65
2022-09-02T07:37:47.663Z,0.50
2022-09-02T07:40:15.612Z,0.70
2022-09-02T07:42:44.051Z,0.40
2022-09-02T07:45:13.222Z,1.05
2022-09-02T07:47:42.340Z,0.60
2022-09-02T07:50:20.641Z,0.50
2022-09-02T07:52:57.443Z,0.75
2022-09-02T07:55:27.294Z,0.60
2022-09-02T07:57:56.868Z,0.50
2022-09-02T08:00:27.659Z,0.95
2022-09-02T08:02:58.748Z,0.35
2022-09-02T08:05:33.413Z,0.50
2022-09-02T08:08:00.427Z,0.70
2022-09-02T08:10:29.560Z,0.65
2022-09-02T08:13:00.778Z,0.73
2022-09-02T08:15:30.145Z,0.93
2022-09-02T08:17:59.165Z,0.60
2022-09-02T08:20:26.660Z,0.68
2022-09-02T08:23:05.033Z,0.50
2022-09-02T08:25:39.310Z,0.68
2022-09-02T08:28:06.666Z,0.63
2022-09-02T08:30:34.022Z,0.60
2022-09-02T08:33:01.798Z,0.90
2022-09-02T08:35:28.753Z,0.75
2022-09-02T08:37:59.599Z,0.57
2022-09-02T08:40:41.324Z,0.50
2022-09-02T08:43:39.885Z,0.70
2022-09-02T08:46:12.285Z,0.65
2022-09-02T08:48:53.028Z,0.40
2022-09-02T08:51:52.884Z,1.25
2022-09-02T08:54:51.084Z,0.85
2022-09-02T08:57:17.989Z,0.80
2022-09-02T08:59:45.986Z,0.73
2022-09-02T09:02:20.307Z,0.50
2022-09-02T09:05:08.811Z,0.60
2022-09-02T09:08:12.330Z,0.93
2022-09-02T09:10:59.799Z,0.65
2022-09-02T09:13:41.306Z,0.93
2022-09-02T09:16:47.090Z,0.57
2022-09-02T09:19:37.839Z,0.88
2022-09-02T09:22:05.347Z,0.80
2022-09-02T09:24:40.508Z,0.60
2022-09-02T09:27:20.179Z,0.65
2022-09-02T09:29:50.239Z,0.70
2022-09-02T09:32:42.165Z,1.38
2022-09-02T09:35:18.083Z,0.70
2022-09-02T09:37:55.943Z,0.70
2022-09-02T09:40:32.227Z,0.90
2022-09-02T09:43:14.240Z,0.90
2022-09-02T09:45:47.550Z,0.90
2022-09-02T09:48:20.219Z,0.93
2022-09-02T09:50:57.626Z,0.85
2022-09-02T09:53:30.884Z,0.80
2022-09-02T09:56:23.950Z,0.50
2022-09-02T09:58:51.597Z,1.08
2022-09-02T10:01:32.114Z,0.85
2022-09-02T10:04:04.963Z,1.17
2022-09-02T10:06:33.864Z,0.73
2022-09-02T10:09:14.062Z,1.35
2022-09-02T10:11:59.797Z,0.60
2022-09-02T10:14:45.174Z,1.08
2022-09-02T10:17:49.325Z,0.75
2022-09-02T10:21:11.584Z,0.98
2022-09-02T10:24:04.830Z,0.90
2022-09-02T10:26:51.467Z,1.13
2022-09-02T10:29:46.503Z,0.82
2022-09-02T10:32:46.732Z,1.00
2022-09-02T10:35:32.126Z,1.05
2022-09-02T10:38:42.459Z,1.05
2022-09-02T10:41:33.923Z,0.98
2022-09-02T10:44:25.199Z,1.30
2022-09-02T10:47:05.743Z,1.20
2022-09-02T10:49:41.616Z,1.00
2022-09-02T10:52:26.873Z,1.33
2022-09-02T10:55:37.938Z,1.40
2022-09-02T10:58:46.015Z,1.17
2022-09-02T11:02:09.809Z,0.88
2022-09-02T11:04:56.954Z,1.00
2022-09-02T11:07:31.376Z,1.20
2022-09-02T11:10:12.553Z,1.20
2022-09-02T11:12:48.600Z,1.38
2022-09-02T11:15:22.691Z,0.85
2022-09-02T11:18:17.935Z,1.13
2022-09-02T11:21:38.990Z,1.30
2022-09-02T11:24:23.646Z,1.25
2022-09-02T11:26:56.509Z,2.03
2022-09-02T11:29:58.734Z,1.77
2022-09-02T11:32:56.050Z,1.10
2022-09-02T11:35:39.435Z,1.02
2022-09-02T11:38:15.237Z,0.98
2022-09-02T11:41:37.605Z,1.27
2022-09-02T11:44:52.461Z,1.00
2022-09-02T11:47:53.886Z,0.80
2022-09-02T11:50:39.622Z,1.00
2022-09-02T11:53:25.031Z,0.95
2022-09-02T11:56:39.874Z,0.98
2022-09-02T11:59:08.559Z,1.10
2022-09-02T12:01:52.342Z,1.35
2022-09-02T12:04:58.743Z,0.80
2022-09-02T12:07:13.614Z,0.60
2022-09-02T12:09:55.436Z,0.63
2022-09-02T12:12:37.536Z,1.20
2022-09-02T12:15:05.480Z,0.90
2022-09-02T12:17:53.260Z,1.25
2022-09-02T12:20:41.379Z,0.80
2022-09-02T12:23:12.284Z,1.00
2022-09-02T12:25:48.782Z,1.08
2022-09-02T12:28:24.111Z,0.80
2022-09-02T12:31:10.488Z,0.73
2022-09-02T12:36:42.675Z,1.10
2022-09-02T12:39:23.522Z,0.88
2022-09-02T12:42:08.847Z,0.70
2022-09-02T12:47:58.096Z,0.70
2022-09-02T12:50:54.721Z,2.75
2022-09-02T12:53:33.414Z,0.73
2022-09-02T12:56:18.846Z,0.60
2022-09-02T12:59:02.299Z,0.90
2022-09-02T13:01:49.579Z,1.00
2022-09-02T13:04:34.734Z,0.63
2022-09-02T13:07:29.319Z,0.40
2022-09-02T13:10:34.901Z,1.30
2022-09-02T13:13:20.141Z,0.90
2022-09-02T13:16:23.767Z,1.20
2022-09-02T13:19:21.549Z,0.70
2022-09-02T13:22:33.978Z,0.60
2022-09-02T13:25:14.285Z,1.00
2022-09-02T13:28:16.809Z,0.70
2022-09-02T13:31:20.550Z,0.90
2022-09-02T13:33:57.069Z,0.95
2022-09-02T13:36:30.939Z,0.77
2022-09-02T13:39:29.715Z,1.00
2022-09-02T13:41:57.370Z,0.88
2022-09-02T13:44:28.549Z,0.80
2022-09-02T13:47:16.687Z,0.75
2022-09-02T13:49:47.907Z,0.70
2022-09-02T13:53:19.639Z,0.82
2022-09-02T13:55:14.702Z,0.68
2022-09-02T13:57:50.108Z,1.42
2022-09-02T14:00:29.611Z,1.20
2022-09-02T14:03:02.185Z,0.90
2022-09-02T14:05:30.749Z,1.08
2022-09-02T14:08:00.939Z,0.80
2022-09-02T14:10:28.978Z,1.00
2022-09-02T14:12:57.084Z,0.70
2022-09-02T14:15:31.278Z,0.80
2022-09-02T14:18:36.820Z,1.38
2022-09-02T14:21:17.440Z,0.77
2022-09-02T14:23:52.231Z,1.17
2022-09-02T14:26:42.474Z,0.80
2022-09-02T14:29:15.905Z,0.95
2022-09-02T14:31:43.217Z,0.90
2022-09-02T14:34:41.221Z,0.70
2022-09-02T14:37:35.243Z,0.90
2022-09-02T14:40:12.938Z,1.00
2022-09-02T14:42:57.794Z,1.45
2022-09-02T14:45:35.165Z,0.80
2022-09-02T14:48:19.371Z,0.73
2022-09-02T14:50:46.422Z,1.02
2022-09-02T14:53:21.610Z,1.08
2022-09-02T14:55:54.193Z,1.00
2022-09-02T14:58:27.031Z,1.52
2022-09-02T15:00:59.071Z,0.93
2022-09-02T15:03:27.732Z,0.80
2022-09-02T15:05:54.874Z,0.85
2022-09-02T15:08:22.401Z,0.82
2022-09-02T15:10:50.453Z,0.82
2022-09-02T15:13:26.461Z,1.02
2022-09-02T15:15:55.428Z,0.90
2022-09-02T15:18:23.728Z,0.82
2022-09-02T15:20:51.447Z,0.82
2022-09-02T15:23:18.821Z,0.70
2022-09-02T15:25:45.870Z,0.80
2022-09-02T15:28:13.649Z,1.30
2022-09-02T15:30:40.806Z,0.52
2022-09-02T15:33:09.289Z,1.05
2022-09-02T15:35:44.246Z,1.00
2022-09-02T15:38:11.144Z,1.00
2022-09-02T15:40:39.012Z,1.00
2022-09-02T15:43:06.199Z,3.40
2022-09-02T15:45:33.615Z,0.60
2022-09-02T15:48:00.702Z,0.70
2022-09-02T15:50:32.551Z,0.77
2022-09-02T15:53:01.499Z,0.70
2022-09-02T15:55:32.897Z,0.88
2022-09-02T15:58:00.161Z,0.70
2022-09-02T16:00:27.689Z,0.80
2022-09-02T16:02:56.990Z,0.90
2022-09-02T16:05:24.563Z,1.10
2022-09-02T16:07:55.206Z,0.77
2022-09-02T16:10:22.626Z,0.68
2022-09-02T16:12:49.979Z,0.85
2022-09-02T16:15:17.190Z,0.68
2022-09-02T16:17:44.585Z,0.75
2022-09-02T16:20:12.023Z,0.60
2022-09-02T16:22:39.071Z,1.42
2022-09-02T16:25:06.799Z,0.65
2022-09-02T16:27:52.178Z,1.35
2022-09-02T16:30:19.922Z,1.48
2022-09-02T16:32:47.894Z,0.90
2022-09-02T16:35:15.173Z,1.17
2022-09-02T16:37:42.485Z,0.90
2022-09-02T16:40:11.202Z,0.77
2022-09-02T16:42:38.385Z,0.85
2022-09-02T16:45:06.551Z,0.88
2022-09-02T16:47:34.260Z,0.88
2022-09-02T16:50:01.197Z,0.63
2022-09-02T16:52:28.156Z,0.98
2022-09-02T16:54:55.039Z,1.20
2022-09-02T16:57:21.951Z,0.70
2022-09-02T16:59:49.514Z,0.50
2022-09-02T17:02:16.515Z,1.00
2022-09-02T17:04:43.543Z,0.68
2022-09-02T17:07:10.494Z,0.60
2022-09-02T17:09:37.801Z,1.00
2022-09-02T17:12:04.959Z,0.63
2022-09-02T17:14:31.916Z,0.93
2022-09-02T17:16:58.863Z,1.65
2022-09-02T17:19:29.954Z,0.63
2022-09-02T17:21:58.944Z,0.77
2022-09-02T17:24:31.557Z,0.68
2022-09-02T17:27:00.286Z,0.70
2022-09-02T17:32:18.591Z,0.60
2022-09-02T17:34:45.651Z,1.45
2022-09-02T17:37:12.851Z,1.08
2022-09-02T17:39:39.872Z,1.50
2022-09-02T17:42:11.273Z,0.80
2022-09-02T17:44:39.769Z,0.98
2022-09-02T17:47:09.831Z,0.90
2022-09-02T17:49:38.632Z,0.70
2022-09-02T17:52:08.061Z,0.90
2022-09-02T17:54:37.260Z,0.90
2022-09-02T17:57:59.697Z,1.00
2022-09-02T18:00:28.722Z,0.90
2022-09-02T18:03:28.574Z,0.90
2022-09-02T18:06:06.079Z,0.80
2022-09-02T18:08:45.572Z,1.48
2022-09-02T18:11:13.499Z,0.82
2022-09-02T18:14:31.079Z,1.10
2022-09-02T18:17:09.314Z,1.23
2022-09-02T18:19:57.819Z,1.40
2022-09-02T18:22:57.887Z,1.42
2022-09-02T18:26:18.030Z,1.92
2022-09-02T18:29:20.740Z,2.00
2022-09-02T18:32:38.327Z,1.52
2022-09-02T18:35:44.836Z,1.98
2022-09-02T18:41:26.765Z,2.40
2022-09-02T18:44:16.861Z,2.30
2022-09-02T18:46:59.753Z,2.92
2022-09-02T18:49:31.931Z,2.95
2022-09-02T18:52:04.246Z,3.05
2022-09-02T18:54:54.293Z,2.45
2022-09-02T18:57:21.596Z,3.72
2022-09-02T19:00:12.139Z,3.70
2022-09-02T19:03:01.830Z,3.17
2022-09-02T19:05:33.505Z,2.30
2022-09-02T19:08:29.046Z,2.53
2022-09-02T19:11:14.224Z,2.58
2022-09-02T19:13:57.363Z,3.15
2022-09-02T19:16:33.129Z,4.10
2022-09-02T19:19:00.079Z,3.30
2022-09-02T19:21:37.844Z,3.75
2022-09-02T19:24:12.731Z,2.90
2022-09-02T19:26:41.513Z,2.53
2022-09-02T19:29:12.253Z,2.50
2022-09-02T19:31:41.648Z,2.30
2022-09-02T19:34:10.684Z,2.20
2022-09-02T19:36:41.979Z,2.50
2022-09-02T19:39:10.115Z,2.25
2022-09-02T19:41:37.287Z,1.92
2022-09-02T19:44:04.179Z,1.75
2022-09-02T19:49:17.948Z,2.80
2022-09-02T19:51:45.717Z,9.48
2022-09-02T19:54:15.295Z,20.08
2022-09-02T19:56:42.607Z,6.20
2022-09-02T19:59:10.899Z,3.67
2022-09-02T20:01:38.624Z,2.15
2022-09-02T20:04:06.513Z,2.20
2022-09-02T20:06:33.507Z,1.75
2022-09-02T20:09:00.474Z,2.08
2022-09-02T20:11:28.090Z,2.20
2022-09-02T20:13:56.356Z,2.83
2022-09-02T20:16:29.005Z,3.45
2022-09-02T20:18:56.930Z,3.25
2022-09-02T20:21:27.511Z,2.90
2022-09-02T20:23:58.750Z,2.58
2022-09-02T20:26:45.418Z,2.58
2022-09-02T20:29:34.673Z,2.53
2022-09-02T20:32:07.701Z,2.90
2022-09-02T20:34:45.278Z,2.67
2022-09-02T20:37:50.210Z,2.70
2022-09-02T20:40:52.711Z,3.08
2022-09-02T20:44:23.549Z,3.15
2022-09-02T20:47:20.651Z,2.00
2022-09-02T20:50:00.048Z,2.85
2022-09-02T20:52:56.901Z,3.17
2022-09-02T20:55:38.605Z,2.60
2022-09-02T20:58:36.063Z,2.47
2022-09-02T21:01:08.580Z,2.70
2022-09-02T21:03:47.498Z,1.77
2022-09-02T21:06:15.935Z,1.83
2022-09-02T21:09:31.366Z,2.00
2022-09-02T21:12:08.357Z,2.00
2022-09-02T21:14:47.597Z,2.25
2022-09-02T21:17:38.666Z,1.60
2022-09-02T21:20:24.829Z,1.80
2022-09-02T21:22:58.021Z,1.98
2022-09-02T21:25:58.111Z,1.90
2022-09-02T21:28:51.098Z,1.30
2022-09-02T21:31:35.306Z,1.73
2022-09-02T21:34:16.755Z,1.70
2022-09-02T21:36:43.997Z,1.52
2022-09-02T21:39:17.294Z,1.30
2022-09-02T21:41:59.547Z,1.40
2022-09-02T21:44:56.667Z,1.45
2022-09-02T21:48:10.574Z,2.30
2022-09-02T21:51:10.686Z,1.65
2022-09-02T21:54:11.207Z,1.80
2022-09-02T21:57:22.631Z,1.60
2022-09-02T22:00:00.733Z,1.83
2022-09-02T22:02:52.654Z,2.42
2022-09-02T22:05:47.637Z,2.35
2022-09-02T22:08:31.597Z,1.90
2022-09-02T22:13:40.723Z,1.80
2022-09-02T22:16:32.615Z,1.83
2022-09-02T22:19:08.361Z,1.80
2022-09-02T22:21:49.565Z,1.60
2022-09-02T22:24:28.547Z,1.60
2022-09-02T22:27:18.053Z,1.95
2022-09-02T22:30:16.513Z,1.90
2022-09-02T22:32:49.707Z,2.38
2022-09-02T22:35:54.896Z,1.83
2022-09-02T22:38:30.853Z,2.13
2022-09-02T22:41:35.812Z,2.05
2022-09-02T22:44:49.271Z,1.67
2022-09-02T22:47:35.781Z,2.10
2022-09-02T22:50:23.966Z,1.80
2022-09-02T22:52:57.548Z,1.90
2022-09-02T22:55:59.353Z,2.15
2022-09-02T22:58:44.717Z,1.90
2022-09-02T23:01:26.742Z,1.67
2022-09-02T23:04:23.795Z,1.90
2022-09-02T23:06:55.221Z,1.77
2022-09-02T23:09:22.190Z,1.88
2022-09-02T23:12:23.133Z,1.60
2022-09-02T23:15:37.089Z,2.28
2022-09-02T23:18:29.646Z,1.80
2022-09-02T23:21:20.068Z,2.00
2022-09-02T23:24:28.342Z,2.13
2022-09-02T23:27:10.323Z,1.80
2022-09-02T23:29:40.080Z,2.00
2022-09-02T23:32:23.498Z,1.90
2022-09-02T23:35:01.450Z,1.90
2022-09-02T23:38:22.498Z,1.92
2022-09-02T23:41:02.180Z,1.98
2022-09-02T23:43:29.977Z,1.50
2022-09-02T23:46:02.161Z,1.75
2022-09-02T23:48:47.466Z,1.90
2022-09-02T23:51:40.528Z,1.97
2022-09-02T23:54:50.632Z,2.00
2022-09-02T23:57:53.102Z,1.90
